createdAt,value
2022-08-26T00:01:54.248Z,24.27
2022-08-26T00:04:23.829Z,31.95
2022-08-26T00:06:51.792Z,31.63
2022-08-26T00:09:19.376Z,28.40
2022-08-26T00:11:46.608Z,36.95
2022-08-26T00:14:16.533Z,24.88
2022-08-26T00:16:47.838Z,24.73
2022-08-26T00:19:20.963Z,24.33
2022-08-26T00:21:50.078Z,33.72
2022-08-26T00:24:20.492Z,29.77
2022-08-26T00:26:49.247Z,24.40
2022-08-26T00:29:17.293Z,24.35
2022-08-26T00:31:45.092Z,21.80
2022-08-26T00:34:13.912Z,26.42
2022-08-26T00:36:41.177Z,23.80
2022-08-26T00:39:09.397Z,25.52
2022-08-26T00:41:40.518Z,26.35
2022-08-26T00:44:11.230Z,27.27
2022-08-26T00:46:49.463Z,23.20
2022-08-26T00:49:42.992Z,23.48
2022-08-26T00:52:15.983Z,22.05
2022-08-26T00:55:00.805Z,25.27
2022-08-26T00:57:32.097Z,21.20
2022-08-26T01:00:01.523Z,25.35
2022-08-26T01:02:29.492Z,23.27
2022-08-26T01:05:00.905Z,26.90
2022-08-26T01:07:32.309Z,23.10
2022-08-26T01:10:05.899Z,19.67
2022-08-26T01:12:40.163Z,23.65
2022-08-26T01:15:10.384Z,24.63
2022-08-26T01:17:39.699Z,26.13
2022-08-26T01:20:17.987Z,23.08
2022-08-26T01:22:54.165Z,22.52
2022-08-26T01:25:24.253Z,22.60
2022-08-26T01:27:52.674Z,27.13
2022-08-26T01:30:21.170Z,26.70
2022-08-26T01:32:50.616Z,21.67
2022-08-26T01:35:18.472Z,17.42
2022-08-26T01:37:48.225Z,26.75
2022-08-26T01:40:20.597Z,25.08
2022-08-26T01:42:49.325Z,23.30
2022-08-26T01:45:26.324Z,19.35
2022-08-26T01:47:57.389Z,20.98
2022-08-26T01:50:30.143Z,21.25
2022-08-26T01:53:02.580Z,22.77
2022-08-26T01:55:33.055Z,22.30
2022-08-26T01:58:05.658Z,17.88
2022-08-26T02:00:33.694Z,24.88
2022-08-26T02:03:21.698Z,24.13
2022-08-26T02:06:01.172Z,18.58
2022-08-26T02:08:50.933Z,22.95
2022-08-26T02:11:18.552Z,22.65
2022-08-26T02:13:49.548Z,20.67
2022-08-26T02:16:22.040Z,22.92
2022-08-26T02:18:50.628Z,21.17
2022-08-26T02:21:20.688Z,22.92
2022-08-26T02:23:47.797Z,22.23
2022-08-26T02:26:19.259Z,19.17
2022-08-26T02:29:12.628Z,19.80
2022-08-26T02:31:42.096Z,24.35
2022-08-26T02:34:20.024Z,21.90
2022-08-26T02:36:47.443Z,21.55
2022-08-26T02:39:19.521Z,20.45
2022-08-26T02:41:50.147Z,19.92
2022-08-26T02:44:17.677Z,23.13
2022-08-26T02:46:46.837Z,21.48
2022-08-26T02:49:15.696Z,21.30
2022-08-26T02:51:44.398Z,23.15
2022-08-26T02:54:12.777Z,23.80
2022-08-26T02:56:40.315Z,22.92
2022-08-26T02:59:07.945Z,23.80
2022-08-26T03:01:37.088Z,27.88
2022-08-26T03:04:07.104Z,21.75
2022-08-26T03:06:34.331Z,26.27
2022-08-26T03:09:01.540Z,24.17
2022-08-26T03:11:33.051Z,27.73
2022-08-26T03:14:01.816Z,25.83
2022-08-26T03:16:37.882Z,22.55
2022-08-26T03:19:08.178Z,20.50
2022-08-26T03:21:38.197Z,16.60
2022-08-26T03:24:05.985Z,20.73
2022-08-26T03:26:33.179Z,19.60
2022-08-26T03:29:18.750Z,24.77
2022-08-26T03:31:46.955Z,22.50
2022-08-26T03:34:14.851Z,21.85
2022-08-26T03:36:42.464Z,23.45
2022-08-26T03:39:12.070Z,19.52
2022-08-26T03:41:40.686Z,26.38
2022-08-26T03:44:11.497Z,29.65
2022-08-26T03:46:39.659Z,23.85
2022-08-26T03:49:07.685Z,23.00
2022-08-26T03:51:38.680Z,17.48
2022-08-26T03:54:08.365Z,20.65
2022-08-26T03:56:36.850Z,21.92
2022-08-26T03:59:04.975Z,18.88
2022-08-26T04:01:35.264Z,20.98
2022-08-26T04:04:03.255Z,22.55
2022-08-26T04:06:32.121Z,16.83
2022-08-26T04:09:02.073Z,22.17
2022-08-26T04:11:34.206Z,23.55
2022-08-26T04:14:05.700Z,29.45
2022-08-26T04:16:33.085Z,19.33
2022-08-26T04:19:00.999Z,17.02
2022-08-26T04:21:29.020Z,21.65
2022-08-26T04:23:56.792Z,20.17
2022-08-26T04:26:26.090Z,19.52
2022-08-26T04:28:54.752Z,22.35
2022-08-26T04:31:22.386Z,18.02
2022-08-26T04:33:50.542Z,23.35
2022-08-26T04:36:20.204Z,17.08
2022-08-26T04:38:48.569Z,16.35
2022-08-26T04:41:16.813Z,26.35
2022-08-26T04:43:46.625Z,28.92
2022-08-26T04:46:22.750Z,21.98
2022-08-26T04:48:51.943Z,22.38
2022-08-26T04:51:22.274Z,18.08
2022-08-26T04:56:53.453Z,24.23
2022-08-26T04:59:20.675Z,23.27
2022-08-26T05:01:54.154Z,17.77
2022-08-26T05:04:22.320Z,16.80
2022-08-26T05:06:50.210Z,31.92
2022-08-26T05:09:21.048Z,21.00
2022-08-26T05:11:52.042Z,24.17
2022-08-26T05:14:25.727Z,18.88
2022-08-26T05:16:54.079Z,21.27
2022-08-26T05:19:21.260Z,22.08
2022-08-26T05:21:48.805Z,13.93
2022-08-26T05:24:18.672Z,16.50
2022-08-26T05:26:48.102Z,16.35
2022-08-26T05:29:16.074Z,14.23
2022-08-26T05:31:44.160Z,15.43
2022-08-26T05:34:11.301Z,19.30
2022-08-26T05:36:39.291Z,19.38
2022-08-26T05:39:07.371Z,13.38
2022-08-26T05:41:38.708Z,14.20
2022-08-26T05:46:37.037Z,16.70
2022-08-26T05:49:06.558Z,13.10
2022-08-26T05:51:45.353Z,17.98
2022-08-26T05:54:13.543Z,16.15
2022-08-26T05:56:42.427Z,14.43
2022-08-26T05:59:14.692Z,10.88
2022-08-26T06:01:43.933Z,16.02
2022-08-26T06:04:11.770Z,12.60
2022-08-26T06:06:42.871Z,13.35
2022-08-26T06:09:11.453Z,13.07
2022-08-26T06:11:39.197Z,14.00
2022-08-26T06:14:08.056Z,13.38
2022-08-26T06:16:38.742Z,15.93
2022-08-26T06:19:11.608Z,14.32
2022-08-26T06:21:42.588Z,17.88
2022-08-26T06:24:31.106Z,17.60
2022-08-26T06:27:02.040Z,11.90
2022-08-26T06:29:33.308Z,10.90
2022-08-26T06:32:02.977Z,18.38
2022-08-26T06:34:30.920Z,19.58
2022-08-26T06:37:03.269Z,19.52
2022-08-26T06:39:31.710Z,19.55
2022-08-26T06:42:01.100Z,16.73
2022-08-26T06:44:34.158Z,17.20
2022-08-26T06:47:01.618Z,12.38
2022-08-26T06:49:28.906Z,18.02
2022-08-26T06:51:59.899Z,18.20
2022-08-26T06:54:30.438Z,20.85
2022-08-26T06:56:58.089Z,21.87
2022-08-26T06:59:25.874Z,20.23
2022-08-26T07:01:53.329Z,20.23
2022-08-26T07:04:23.368Z,15.63
2022-08-26T07:06:53.567Z,15.32
2022-08-26T07:09:22.933Z,16.85
2022-08-26T07:11:51.623Z,21.38
2022-08-26T07:14:21.474Z,18.95
2022-08-26T07:16:50.459Z,16.83
2022-08-26T07:19:30.132Z,14.60
2022-08-26T07:22:04.220Z,14.68
2022-08-26T07:24:38.673Z,16.80
2022-08-26T07:27:08.883Z,18.38
2022-08-26T07:29:39.069Z,19.60
2022-08-26T07:32:06.964Z,22.33
2022-08-26T07:34:34.325Z,17.35
2022-08-26T07:37:02.028Z,19.95
2022-08-26T07:39:31.686Z,23.73
2022-08-26T07:42:01.724Z,14.52
2022-08-26T07:44:38.304Z,16.95
2022-08-26T07:47:10.260Z,15.15
2022-08-26T07:49:55.659Z,12.80
2022-08-26T07:52:26.602Z,16.33
2022-08-26T07:54:58.393Z,13.82
2022-08-26T07:57:26.502Z,15.83
2022-08-26T07:59:55.027Z,13.02
2022-08-26T08:02:24.642Z,19.33
2022-08-26T08:04:52.435Z,11.60
2022-08-26T08:07:19.700Z,16.83
2022-08-26T08:09:49.791Z,16.30
2022-08-26T08:12:18.457Z,12.30
2022-08-26T08:14:46.981Z,17.23
2022-08-26T08:17:16.503Z,19.20
2022-08-26T08:19:43.670Z,19.58
2022-08-26T08:22:17.948Z,25.08
2022-08-26T08:24:50.038Z,15.32
2022-08-26T08:27:23.807Z,17.27
2022-08-26T08:29:57.007Z,23.92
2022-08-26T08:32:24.211Z,23.88
2022-08-26T08:34:51.674Z,14.52
2022-08-26T08:37:19.268Z,17.30
2022-08-26T08:39:46.310Z,17.15
2022-08-26T08:42:31.128Z,13.68
2022-08-26T08:47:36.043Z,16.05
2022-08-26T08:50:23.936Z,16.30
2022-08-26T08:53:17.826Z,11.88
2022-08-26T08:56:23.756Z,19.20
2022-08-26T08:58:57.521Z,19.02
2022-08-26T09:01:36.574Z,19.15
2022-08-26T09:04:26.836Z,17.30
2022-08-26T09:09:46.233Z,22.20
2022-08-26T09:12:20.538Z,13.13
2022-08-26T09:15:30.424Z,10.68
2022-08-26T09:18:10.870Z,15.77
2022-08-26T09:20:55.494Z,12.60
2022-08-26T09:23:22.874Z,15.80
2022-08-26T09:28:24.449Z,15.40
2022-08-26T09:31:24.030Z,11.95
2022-08-26T09:34:17.026Z,13.82
2022-08-26T09:36:49.342Z,11.10
2022-08-26T09:39:28.284Z,14.07
2022-08-26T09:42:21.202Z,13.60
2022-08-26T09:45:06.594Z,10.20
2022-08-26T09:47:39.037Z,14.73
2022-08-26T09:50:32.404Z,14.10
2022-08-26T09:53:09.728Z,11.50
2022-08-26T09:55:39.614Z,14.15
2022-08-26T09:58:07.921Z,19.15
2022-08-26T10:00:40.279Z,12.90
2022-08-26T10:03:12.061Z,10.50
2022-08-26T10:05:54.722Z,9.15
2022-08-26T10:08:48.397Z,10.48
2022-08-26T10:11:41.786Z,9.38
2022-08-26T10:14:20.816Z,9.93
2022-08-26T10:17:01.495Z,8.77
2022-08-26T10:19:53.595Z,12.82
2022-08-26T10:22:45.839Z,14.43
2022-08-26T10:25:20.485Z,10.68
2022-08-26T10:28:00.685Z,12.43
2022-08-26T10:30:40.763Z,9.02
2022-08-26T10:33:15.629Z,9.55
2022-08-26T10:35:52.548Z,12.07
2022-08-26T10:38:28.743Z,8.30
2022-08-26T10:41:00.216Z,12.57
2022-08-26T10:43:33.215Z,11.57
2022-08-26T10:46:05.579Z,19.80
2022-08-26T10:49:00.065Z,10.50
2022-08-26T10:51:36.708Z,9.07
2022-08-26T10:54:11.811Z,9.90
2022-08-26T10:56:57.207Z,11.13
2022-08-26T10:59:36.806Z,11.27
2022-08-26T11:02:37.215Z,10.68
2022-08-26T11:05:18.802Z,11.48
2022-08-26T11:07:48.656Z,10.45
2022-08-26T11:10:16.496Z,13.48
2022-08-26T11:12:45.494Z,12.60
2022-08-26T11:15:26.566Z,9.05
2022-08-26T11:17:55.423Z,13.13
2022-08-26T11:20:33.527Z,12.50
2022-08-26T11:23:12.996Z,12.48
2022-08-26T11:26:01.259Z,11.50
2022-08-26T11:28:50.462Z,10.68
2022-08-26T11:31:26.519Z,10.60
2022-08-26T11:34:01.307Z,10.57
2022-08-26T11:36:47.868Z,12.15
2022-08-26T11:39:17.981Z,9.07
2022-08-26T11:41:52.770Z,11.30
2022-08-26T11:44:29.546Z,8.77
2022-08-26T11:47:00.263Z,10.02
2022-08-26T11:49:29.090Z,7.90
2022-08-26T11:52:16.811Z,9.55
2022-08-26T11:55:20.315Z,9.32
2022-08-26T11:57:54.735Z,10.82
2022-08-26T12:00:36.120Z,8.83
2022-08-26T12:03:09.539Z,10.02
2022-08-26T12:05:43.500Z,7.97
2022-08-26T12:08:16.414Z,9.77
2022-08-26T12:10:43.556Z,9.25
2022-08-26T12:13:22.445Z,11.63
2022-08-26T12:15:58.303Z,11.85
2022-08-26T12:18:31.778Z,9.50
2022-08-26T12:21:01.209Z,10.68
2022-08-26T12:23:36.911Z,10.95
2022-08-26T12:26:30.780Z,13.25
2022-08-26T12:28:58.483Z,9.00
2022-08-26T12:31:39.552Z,10.90
2022-08-26T12:34:17.445Z,8.00
2022-08-26T12:36:53.131Z,12.77
2022-08-26T12:39:31.568Z,11.80
2022-08-26T12:42:01.156Z,7.95
2022-08-26T12:44:42.339Z,8.77
2022-08-26T12:47:41.958Z,9.60
2022-08-26T12:50:23.740Z,9.50
2022-08-26T12:53:02.951Z,11.07
2022-08-26T12:55:32.956Z,10.73
2022-08-26T12:58:22.555Z,7.57
2022-08-26T13:00:55.554Z,7.45
2022-08-26T13:03:38.373Z,10.85
2022-08-26T13:06:27.923Z,12.35
2022-08-26T13:09:24.164Z,12.73
2022-08-26T13:11:53.331Z,10.35
2022-08-26T13:14:24.079Z,10.40
2022-08-26T13:16:52.973Z,18.98
2022-08-26T13:19:29.154Z,9.88
2022-08-26T13:21:58.460Z,9.95
2022-08-26T13:24:38.590Z,10.88
2022-08-26T13:27:08.321Z,8.30
2022-08-26T13:29:38.177Z,7.55
2022-08-26T13:32:07.183Z,9.02
2022-08-26T13:34:37.111Z,13.20
2022-08-26T13:37:07.023Z,10.32
2022-08-26T13:39:36.988Z,15.07
2022-08-26T13:42:04.425Z,10.55
2022-08-26T13:44:43.083Z,16.80
2022-08-26T13:47:17.284Z,10.68
2022-08-26T13:49:44.649Z,9.35
2022-08-26T13:52:12.697Z,16.85
2022-08-26T13:54:41.762Z,12.23
2022-08-26T13:57:10.046Z,11.57
2022-08-26T13:59:54.666Z,8.35
2022-08-26T14:02:22.667Z,8.30
2022-08-26T14:05:02.724Z,12.05
2022-08-26T14:07:33.126Z,11.30
2022-08-26T14:10:02.589Z,10.65
2022-08-26T14:12:29.851Z,9.57
2022-08-26T14:14:56.974Z,13.50
2022-08-26T14:17:26.344Z,12.45
2022-08-26T14:19:58.084Z,11.77
2022-08-26T14:22:25.393Z,15.48
2022-08-26T14:24:52.501Z,9.70
2022-08-26T14:27:19.862Z,12.90
2022-08-26T14:29:47.027Z,8.68
2022-08-26T14:32:28.864Z,10.20
2022-08-26T14:34:56.579Z,10.88
2022-08-26T14:37:24.171Z,11.20
2022-08-26T14:39:51.735Z,9.43
2022-08-26T14:42:27.815Z,15.63
2022-08-26T14:45:02.165Z,14.55
2022-08-26T14:47:31.039Z,12.07
2022-08-26T14:49:58.120Z,10.95
2022-08-26T14:52:25.675Z,11.48
2022-08-26T14:54:55.279Z,12.95
2022-08-26T14:57:22.554Z,11.85
2022-08-26T14:59:50.594Z,14.45
2022-08-26T15:02:27.717Z,10.30
2022-08-26T15:05:02.304Z,12.00
2022-08-26T15:07:29.315Z,16.48
2022-08-26T15:09:56.419Z,10.27
2022-08-26T15:12:23.509Z,11.77
2022-08-26T15:14:51.190Z,11.95
2022-08-26T15:17:18.289Z,10.02
2022-08-26T15:19:45.376Z,11.65
2022-08-26T15:22:12.898Z,14.52
2022-08-26T15:24:42.422Z,12.70
2022-08-26T15:27:09.741Z,15.18
2022-08-26T15:29:37.625Z,13.27
2022-08-26T15:32:08.300Z,17.52
2022-08-26T15:34:35.601Z,12.23
2022-08-26T15:37:02.870Z,17.48
2022-08-26T15:39:30.007Z,12.77
2022-08-26T15:41:57.207Z,19.40
2022-08-26T15:44:29.209Z,15.73
2022-08-26T15:46:58.866Z,20.65
2022-08-26T15:49:27.639Z,15.80
2022-08-26T15:51:55.144Z,17.65
2022-08-26T15:54:24.371Z,17.85
2022-08-26T15:56:52.589Z,16.75
2022-08-26T15:59:21.688Z,16.83
2022-08-26T16:01:48.886Z,19.23
2022-08-26T16:04:16.085Z,12.85
2022-08-26T16:06:43.707Z,20.05
2022-08-26T16:09:11.274Z,21.83
2022-08-26T16:11:38.787Z,18.08
2022-08-26T16:14:06.373Z,20.50
2022-08-26T16:16:33.940Z,18.25
2022-08-26T16:19:06.843Z,33.22
2022-08-26T16:21:35.458Z,19.17
2022-08-26T16:24:03.563Z,28.80
2022-08-26T16:26:33.553Z,26.25
2022-08-26T16:29:04.956Z,18.98
2022-08-26T16:31:32.402Z,20.95
2022-08-26T16:33:59.760Z,26.05
2022-08-26T16:36:26.915Z,17.65
2022-08-26T16:38:56.567Z,30.00
2022-08-26T16:41:25.153Z,27.80
2022-08-26T16:43:54.722Z,22.33
2022-08-26T16:46:25.900Z,22.45
2022-08-26T16:48:57.711Z,27.63
2022-08-26T16:51:27.341Z,28.55
2022-08-26T16:53:57.816Z,30.55
2022-08-26T16:56:30.632Z,31.23
2022-08-26T16:59:02.922Z,26.95
2022-08-26T17:01:30.907Z,22.20
2022-08-26T17:03:58.056Z,28.55
2022-08-26T17:06:25.178Z,26.02
2022-08-26T17:08:52.646Z,21.27
2022-08-26T17:11:19.875Z,22.27
2022-08-26T17:13:47.401Z,21.17
2022-08-26T17:16:15.195Z,24.70
2022-08-26T17:18:42.639Z,31.70
2022-08-26T17:21:12.408Z,27.58
2022-08-26T17:23:43.108Z,28.00
2022-08-26T17:26:12.391Z,29.08
2022-08-26T17:28:40.103Z,17.95
2022-08-26T17:31:08.453Z,24.10
2022-08-26T17:33:36.019Z,27.90
2022-08-26T17:36:06.557Z,26.83
2022-08-26T17:38:33.911Z,30.13
2022-08-26T17:41:01.180Z,29.15
2022-08-26T17:43:28.554Z,26.83
2022-08-26T17:46:06.974Z,29.58
2022-08-26T17:48:36.315Z,37.53
2022-08-26T17:51:09.709Z,24.02
2022-08-26T17:53:37.711Z,25.92
2022-08-26T17:56:10.833Z,38.33
2022-08-26T17:58:51.351Z,21.42
2022-08-26T18:01:27.552Z,24.20
2022-08-26T18:04:00.290Z,20.73
2022-08-26T18:06:29.380Z,19.42
2022-08-26T18:08:58.298Z,25.13
2022-08-26T18:11:29.262Z,41.83
2022-08-26T18:13:56.544Z,53.58
2022-08-26T18:16:24.629Z,62.33
2022-08-26T18:18:53.551Z,55.03
2022-08-26T18:21:24.618Z,37.33
2022-08-26T18:23:52.236Z,60.67
2022-08-26T18:26:35.066Z,59.55
2022-08-26T18:29:03.387Z,47.40
2022-08-26T18:31:31.123Z,34.90
2022-08-26T18:34:02.212Z,29.73
2022-08-26T18:36:36.912Z,23.10
2022-08-26T18:39:05.730Z,30.75
2022-08-26T18:41:34.890Z,21.45
2022-08-26T18:44:03.538Z,24.50
2022-08-26T18:46:38.482Z,27.90
2022-08-26T18:49:09.743Z,24.73
2022-08-26T18:51:38.105Z,22.08
2022-08-26T18:54:08.815Z,21.63
2022-08-26T18:56:37.632Z,24.95
2022-08-26T18:59:07.646Z,31.42
2022-08-26T19:01:36.245Z,47.00
2022-08-26T19:04:05.591Z,46.60
2022-08-26T19:06:35.720Z,36.50
2022-08-26T19:09:05.847Z,37.78
2022-08-26T19:11:37.440Z,29.00
2022-08-26T19:14:16.050Z,33.90
2022-08-26T19:16:46.832Z,32.20
2022-08-26T19:19:15.368Z,28.88
2022-08-26T19:21:42.778Z,31.83
2022-08-26T19:24:15.698Z,21.73
2022-08-26T19:26:48.598Z,31.45
2022-08-26T19:29:20.644Z,29.98
2022-08-26T19:31:47.991Z,24.95
2022-08-26T19:34:16.482Z,25.05
2022-08-26T19:36:47.839Z,24.27
2022-08-26T19:39:15.354Z,25.05
2022-08-26T19:41:42.549Z,32.00
2022-08-26T19:44:35.978Z,27.08
2022-08-26T19:47:03.899Z,26.50
2022-08-26T19:49:31.376Z,31.38
2022-08-26T19:51:58.555Z,23.50
2022-08-26T19:54:25.704Z,22.00
2022-08-26T19:56:52.971Z,29.27
2022-08-26T19:59:20.821Z,23.67
2022-08-26T20:02:00.715Z,22.48
2022-08-26T20:04:30.985Z,21.13
2022-08-26T20:07:01.348Z,26.55
2022-08-26T20:09:30.052Z,22.63
2022-08-26T20:11:57.582Z,19.20
2022-08-26T20:14:28.672Z,26.08
2022-08-26T20:16:57.042Z,19.20
2022-08-26T20:19:42.592Z,16.48
2022-08-26T20:22:10.345Z,24.88
2022-08-26T20:24:41.322Z,27.00
2022-08-26T20:27:10.793Z,21.08
2022-08-26T20:29:38.521Z,23.13
2022-08-26T20:32:08.082Z,21.23
2022-08-26T20:34:41.876Z,18.98
2022-08-26T20:37:09.371Z,25.58
2022-08-26T20:39:37.214Z,19.02
2022-08-26T20:42:06.826Z,22.10
2022-08-26T20:44:54.685Z,23.88
2022-08-26T20:47:25.247Z,22.73
2022-08-26T20:49:56.394Z,19.95
2022-08-26T20:52:23.635Z,17.23
2022-08-26T20:54:50.804Z,24.35
2022-08-26T20:57:18.170Z,19.48
2022-08-26T20:59:45.337Z,22.35
2022-08-26T21:02:12.409Z,21.85
2022-08-26T21:04:39.590Z,23.08
2022-08-26T21:07:06.858Z,22.25
2022-08-26T21:09:33.957Z,21.00
2022-08-26T21:12:01.603Z,21.40
2022-08-26T21:14:28.849Z,21.95
2022-08-26T21:16:57.106Z,19.02
2022-08-26T21:19:24.314Z,21.83
2022-08-26T21:21:51.553Z,18.08
2022-08-26T21:24:18.703Z,18.30
2022-08-26T21:26:46.418Z,20.30
2022-08-26T21:29:14.443Z,23.08
2022-08-26T21:31:46.103Z,17.85
2022-08-26T21:34:19.001Z,18.67
2022-08-26T21:36:47.401Z,14.95
2022-08-26T21:39:18.250Z,18.00
2022-08-26T21:41:47.376Z,19.85
2022-08-26T21:44:16.645Z,19.48
2022-08-26T21:46:45.385Z,20.38
2022-08-26T21:49:16.011Z,16.98
2022-08-26T21:51:46.169Z,15.55
2022-08-26T21:54:20.038Z,17.00
2022-08-26T21:56:52.975Z,14.98
2022-08-26T21:59:22.637Z,16.45
2022-08-26T22:01:51.576Z,19.38
2022-08-26T22:04:18.872Z,20.52
2022-08-26T22:06:52.893Z,15.88
2022-08-26T22:09:27.257Z,21.83
2022-08-26T22:11:57.013Z,18.65
2022-08-26T22:14:30.634Z,20.63
2022-08-26T22:17:07.421Z,15.75
2022-08-26T22:19:46.488Z,18.00
2022-08-26T22:22:16.979Z,16.45
2022-08-26T22:24:48.297Z,21.55
2022-08-26T22:27:15.402Z,18.25
2022-08-26T22:29:43.617Z,16.35
2022-08-26T22:32:11.344Z,22.92
2022-08-26T22:34:40.778Z,22.27
2022-08-26T22:37:10.520Z,18.48
2022-08-26T22:39:37.893Z,17.20
2022-08-26T22:42:08.766Z,19.38
2022-08-26T22:44:37.617Z,22.08
2022-08-26T22:47:07.371Z,18.40
2022-08-26T22:49:37.210Z,18.52
2022-08-26T22:52:06.732Z,20.35
2022-08-26T22:54:35.177Z,14.85
2022-08-26T22:57:02.528Z,22.63
2022-08-26T22:59:37.770Z,22.85
2022-08-26T23:02:11.113Z,18.35
2022-08-26T23:04:40.372Z,19.42
2022-08-26T23:07:12.375Z,19.05
2022-08-26T23:09:45.272Z,23.27
2022-08-26T23:12:12.649Z,17.25
2022-08-26T23:14:41.458Z,18.27
2022-08-26T23:17:14.833Z,21.55
2022-08-26T23:19:42.028Z,22.45
2022-08-26T23:22:09.188Z,23.92
2022-08-26T23:24:36.251Z,17.50
2022-08-26T23:27:03.964Z,16.95
2022-08-26T23:29:32.231Z,17.85
2022-08-26T23:31:59.431Z,23.17
2022-08-26T23:34:45.083Z,22.25
2022-08-26T23:37:13.934Z,21.33
2022-08-26T23:39:41.096Z,23.33
2022-08-26T23:42:08.773Z,19.65
2022-08-26T23:44:38.346Z,14.05
2022-08-26T23:47:06.531Z,27.63
2022-08-26T23:49:34.472Z,18.73
2022-08-26T23:52:20.465Z,17.90
2022-08-26T23:54:48.836Z,17.45
2022-08-26T23:57:20.594Z,19.70
2022-08-26T23:59:48.676Z,18.08
